Aviation Digital Data Service (ADDS)

Output produced by METARs form (0006 UTC 16 February 2019)
found at http://www.aviationweather.gov/metar/data/
 
METAR text: RJCM 152300Z 18005KT 9999 FEW040 BKN/// M09/M13 Q1006
Conditions at: RJCM (MEMAMBETSU AIRPO, JP) observed 2300 UTC 15 February 2019
Temperature: -9.0°C (16°F)
Dewpoint: -13.0°C ( 9°F) [RH = 73%]
Pressure (altimeter): 29.70 inches Hg (1006.0 mb)
Winds: from the S (180 degrees) at 6 MPH (5 knots; 2.6 m/s)
Visibility: 6 or more miles (10+ km)
Ceiling: at least 12,000 feet AGL
Clouds: few clouds at 4000 feet AGL
Weather: no significant weather observed at this time

METAR text: RJCM 152245Z 19004KT 9999 FEW040 BKN/// M10/M13 Q1006 RMK 1CU040 A2973
Conditions at: RJCM (MEMAMBETSU AIRPO, JP) observed 2245 UTC 15 February 2019
Temperature: -10.0°C (14°F)
Dewpoint: -13.0°C ( 9°F) [RH = 79%]
Pressure (altimeter): 29.70 inches Hg (1006.0 mb)
Winds: from the S (190 degrees) at 5 MPH (4 knots; 2.1 m/s)
Visibility: 6 or more miles (10+ km)
Ceiling: at least 12,000 feet AGL
Clouds: few clouds at 4000 feet AGL
Weather: no significant weather observed at this time

METAR text: RJCM 151100Z 18002KT 9999 FEW030 SCT120 BKN140 M07/M13 Q1012
Conditions at: RJCM (MEMAMBETSU AIRPO, JP) observed 1100 UTC 15 February 2019
Temperature: -7.0°C (19°F)
Dewpoint: -13.0°C ( 9°F) [RH = 62%]
Pressure (altimeter): 29.88 inches Hg (1012.0 mb)
Winds: from the S (180 degrees) at 2 MPH (2 knots; 1.0 m/s)
Visibility: 6 or more miles (10+ km)
Ceiling: 14000 feet AGL
Clouds: few clouds at 3000 feet AGL
scattered clouds at 12000 feet AGL
broken clouds at 14000 feet AGL
Weather: no significant weather observed at this time

METAR text: RJCM 151000Z 00000KT 9999 FEW030 SCT150 BKN160 M04/M13 Q1012
Conditions at: RJCM (MEMAMBETSU AIRPO, JP) observed 1000 UTC 15 February 2019
Temperature: -4.0°C (25°F)
Dewpoint: -13.0°C ( 9°F) [RH = 50%]
Pressure (altimeter): 29.88 inches Hg (1012.0 mb)
Winds: calm
Visibility: 6 or more miles (10+ km)
Ceiling: 16000 feet AGL
Clouds: few clouds at 3000 feet AGL
scattered clouds at 15000 feet AGL
broken clouds at 16000 feet AGL
Weather: no significant weather observed at this time

METAR text: RJCM 150900Z 17004KT 9999 FEW030 SCT150 BKN160 M07/M13 Q1013
Conditions at: RJCM (MEMAMBETSU AIRPO, JP) observed 0900 UTC 15 February 2019
Temperature: -7.0°C (19°F)
Dewpoint: -13.0°C ( 9°F) [RH = 62%]
Pressure (altimeter): 29.91 inches Hg (1013.0 mb)
Winds: from the S (170 degrees) at 5 MPH (4 knots; 2.1 m/s)
Visibility: 6 or more miles (10+ km)
Ceiling: 16000 feet AGL
Clouds: few clouds at 3000 feet AGL
scattered clouds at 15000 feet AGL
broken clouds at 16000 feet AGL
Weather: no significant weather observed at this time

METAR text: RJCM 150800Z 18004KT 9999 FEW030 BKN170 BKN/// M06/M12 Q1013
Conditions at: RJCM (MEMAMBETSU AIRPO, JP) observed 0800 UTC 15 February 2019
Temperature: -6.0°C (21°F)
Dewpoint: -12.0°C (10°F) [RH = 62%]
Pressure (altimeter): 29.91 inches Hg (1013.0 mb)
Winds: from the S (180 degrees) at 5 MPH (4 knots; 2.1 m/s)
Visibility: 6 or more miles (10+ km)
Ceiling: 17000 feet AGL
Clouds: few clouds at 3000 feet AGL
broken clouds at 17000 feet AGL
Weather: no significant weather observed at this time

METAR text: RJCM 150700Z 09002KT 9999 FEW040 BKN/// M03/M14 Q1014
Conditions at: RJCM (MEMAMBETSU AIRPO, JP) observed 0700 UTC 15 February 2019
Temperature: -3.0°C (27°F)
Dewpoint: -14.0°C ( 7°F) [RH = 42%]
Pressure (altimeter): 29.94 inches Hg (1014.0 mb)
Winds: from the E (90 degrees) at 2 MPH (2 knots; 1.0 m/s)
Visibility: 6 or more miles (10+ km)
Ceiling: at least 12,000 feet AGL
Clouds: few clouds at 4000 feet AGL
Weather: no significant weather observed at this time

METAR text: RJCM 150600Z VRB02KT 9999 FEW040 BKN/// M01/M15 Q1014
Conditions at: RJCM (MEMAMBETSU AIRPO, JP) observed 0600 UTC 15 February 2019
Temperature: -1.0°C (30°F)
Dewpoint: -15.0°C ( 5°F) [RH = 34%]
Pressure (altimeter): 29.94 inches Hg (1014.0 mb)
Winds: variable direction winds at 2 MPH (2 knots; 1.0 m/s)
Visibility: 6 or more miles (10+ km)
Ceiling: at least 12,000 feet AGL
Clouds: few clouds at 4000 feet AGL
Weather: no significant weather observed at this time

METAR text: RJCM 150500Z 30003KT 240V340 9999 FEW040 M01/M15 Q1014
Conditions at: RJCM (MEMAMBETSU AIRPO, JP) observed 0500 UTC 15 February 2019
Temperature: -1.0°C (30°F)
Dewpoint: -15.0°C ( 5°F) [RH = 34%]
Pressure (altimeter): 29.94 inches Hg (1014.0 mb)
Winds: from the WNW (300 degrees) at 3 MPH (3 knots; 1.5 m/s)
Visibility: 6 or more miles (10+ km)
Ceiling: at least 12,000 feet AGL
Clouds: few clouds at 4000 feet AGL
Weather: no significant weather observed at this time

METAR text: RJCM 150400Z 23004KT 180V300 9999 FEW040 M01/M14 Q1015
Conditions at: RJCM (MEMAMBETSU AIRPO, JP) observed 0400 UTC 15 February 2019
Temperature: -1.0°C (30°F)
Dewpoint: -14.0°C ( 7°F) [RH = 37%]
Pressure (altimeter): 29.97 inches Hg (1015.0 mb)
Winds: from the SW (230 degrees) at 5 MPH (4 knots; 2.1 m/s)
Visibility: 6 or more miles (10+ km)
Ceiling: at least 12,000 feet AGL
Clouds: few clouds at 4000 feet AGL
Weather: no significant weather observed at this time

METAR text: RJCM 150300Z VRB01KT 9999 FEW040 SCT060 M03/M13 Q1016
Conditions at: RJCM (MEMAMBETSU AIRPO, JP) observed 0300 UTC 15 February 2019
Temperature: -3.0°C (27°F)
Dewpoint: -13.0°C ( 9°F) [RH = 46%]
Pressure (altimeter): 30.00 inches Hg (1016.0 mb)
Winds: variable direction winds at 1 MPH (1 knots; 0.5 m/s)
Visibility: 6 or more miles (10+ km)
Ceiling: at least 12,000 feet AGL
Clouds: few clouds at 4000 feet AGL
scattered clouds at 6000 feet AGL
Weather: no significant weather observed at this time

METAR text: RJCM 150200Z 16003KT 9999 FEW040 BKN060 M06/M13 Q1017
Conditions at: RJCM (MEMAMBETSU AIRPO, JP) observed 0200 UTC 15 February 2019
Temperature: -6.0°C (21°F)
Dewpoint: -13.0°C ( 9°F) [RH = 58%]
Pressure (altimeter): 30.03 inches Hg (1017.0 mb)
Winds: from the SSE (160 degrees) at 3 MPH (3 knots; 1.5 m/s)
Visibility: 6 or more miles (10+ km)
Ceiling: 6000 feet AGL
Clouds: few clouds at 4000 feet AGL
broken clouds at 6000 feet AGL
Weather: no significant weather observed at this time

METAR text: RJCM 150100Z 17004KT 9999 FEW040 M09/M15 Q1018
Conditions at: RJCM (MEMAMBETSU AIRPO, JP) observed 0100 UTC 15 February 2019
Temperature: -9.0°C (16°F)
Dewpoint: -15.0°C ( 5°F) [RH = 62%]
Pressure (altimeter): 30.06 inches Hg (1018.0 mb)
Winds: from the S (170 degrees) at 5 MPH (4 knots; 2.1 m/s)
Visibility: 6 or more miles (10+ km)
Ceiling: at least 12,000 feet AGL
Clouds: few clouds at 4000 feet AGL
Weather: no significant weather observed at this time

METAR text: RJCM 150000Z 17004KT 150V210 9999 FEW030 SCT060 BKN070 M12/M16 Q1019
Conditions at: RJCM (MEMAMBETSU AIRPO, JP) observed 0000 UTC 15 February 2019
Temperature: -12.0°C (10°F)
Dewpoint: -16.0°C ( 3°F) [RH = 72%]
Pressure (altimeter): 30.09 inches Hg (1019.0 mb)
Winds: from the S (170 degrees) at 5 MPH (4 knots; 2.1 m/s)
Visibility: 6 or more miles (10+ km)
Ceiling: 7000 feet AGL
Clouds: few clouds at 3000 feet AGL
scattered clouds at 6000 feet AGL
broken clouds at 7000 feet AGL
Weather: no significant weather observed at this time

METAR text: RJCM 142300Z 18005KT 9999 FEW030 SCT050 M14/M17 Q1020
Conditions at: RJCM (MEMAMBETSU AIRPO, JP) observed 2300 UTC 14 February 2019
Temperature: -14.0°C ( 7°F)
Dewpoint: -17.0°C ( 1°F) [RH = 78%]
Pressure (altimeter): 30.12 inches Hg (1020.0 mb)
Winds: from the S (180 degrees) at 6 MPH (5 knots; 2.6 m/s)
Visibility: 6 or more miles (10+ km)
Ceiling: at least 12,000 feet AGL
Clouds: few clouds at 3000 feet AGL
scattered clouds at 5000 feet AGL
Weather: no significant weather observed at this time

METAR text: RJCM 142245Z 17006KT 9999 FEW030 SCT050 M15/M18 Q1020 RMK 1CU030 4CU050 A3013
Conditions at: RJCM (MEMAMBETSU AIRPO, JP) observed 2245 UTC 14 February 2019
Temperature: -15.0°C ( 5°F)
Dewpoint: -18.0°C (-0°F) [RH = 78%]
Pressure (altimeter): 30.12 inches Hg (1020.0 mb)
Winds: from the S (170 degrees) at 7 MPH (6 knots; 3.1 m/s)
Visibility: 6 or more miles (10+ km)
Ceiling: at least 12,000 feet AGL
Clouds: few clouds at 3000 feet AGL
scattered clouds at 5000 feet AGL
Weather: no significant weather observed at this time

Forecast for: RJCM (MEMAMBETSU AIRPO, JP)
Text: TAF RJCM 152314Z 1600/1706 21003KT 9999 FEW010 BKN020
Forecast period: 0000 UTC 16 February 2019 to 0600 UTC 17 February 2019
Forecast type: FROM: standard forecast or significant change
Winds: from the SSW (210 degrees) at 3 MPH (3 knots; 1.5 m/s)
Visibility: 6 or more miles 10+ km)
Ceiling: 2000 feet AGL
Clouds: few clouds at 1000 feet AGL
broken clouds at 2000 feet AGL
Weather: no significant weather forecast for this period
Text: BECMG 1600/1602 01010KT
Forecast period: 0000 to 0900 UTC 16 February 2019
Forecast type: BECOMING: Conditions expected to become as follows by 0200 UTC 16 February 2019
Winds: from the N (10 degrees) at 12 MPH (10 knots; 5.1 m/s)
Visibility: 6 or more miles 10+ km)
Ceiling: 2000 feet AGL
Clouds: few clouds at 1000 feet AGL
broken clouds at 2000 feet AGL
Weather: no significant weather forecast for this period
Text: BECMG 1609/1611 20006KT
Forecast period: 0900 UTC 16 February 2019 to 0300 UTC 17 February 2019
Forecast type: BECOMING: Conditions expected to become as follows by 1100 UTC 16 February 2019
Winds: from the SSW (200 degrees) at 7 MPH (6 knots; 3.1 m/s)
Visibility: 6 or more miles 10+ km)
Ceiling: 2000 feet AGL
Clouds: few clouds at 1000 feet AGL
broken clouds at 2000 feet AGL
Weather: no significant weather forecast for this period
Text: BECMG 1703/1706 33010KT
Forecast period: 0300 to 0600 UTC 17 February 2019
Forecast type: BECOMING: Conditions expected to become as follows by 0600 UTC 17 February 2019
Winds: from the NNW (330 degrees) at 12 MPH (10 knots; 5.1 m/s)
Visibility: 6 or more miles 10+ km)
Ceiling: 2000 feet AGL
Clouds: few clouds at 1000 feet AGL
broken clouds at 2000 feet AGL
Weather: no significant weather forecast for this period